Wednesday, October 18, 2017, 6:05 PM EDT
Back to Local

KSEG, Selinsgrove Penn Valley Airport

Location: Selinsgrove, PA, United States Lat: 40.817
Local Time: 6:05 PM EDT (22:05 GMT) Lon: -76.867
Time Zone: US/Eastern Elev: 449 ft

Show me the last for .
Show Decoded

2017-10-18 17:53 METAR KSEG 182153Z AUTO 18003KT 10SM CLR 19/09 A3025 RMK AO2 SLP245 T01890094 =
2017-10-18 16:53 METAR KSEG 182053Z AUTO 17007KT 10SM CLR 21/09 A3026 RMK AO2 SLP246 T02060089
                 56019 =
2017-10-18 15:53 METAR KSEG 181953Z AUTO 16008KT 10SM CLR 20/08 A3027 RMK AO2 SLP252 T02000083 =
2017-10-18 14:53 METAR KSEG 181853Z AUTO 16005KT 10SM CLR 20/09 A3029 RMK AO2 SLP257 T02000094 =
2017-10-18 13:53 METAR KSEG 181753Z AUTO 17004KT 10SM CLR 19/09 A3031 RMK AO2 SLP265 T01890089
                 10189 20033 58021 =
2017-10-18 12:53 METAR KSEG 181653Z AUTO VRB04KT 10SM CLR 17/09 A3035 RMK AO2 SLP277 T01720089 =
2017-10-18 11:53 METAR KSEG 181553Z AUTO 17005KT 10SM CLR 15/08 A3037 RMK AO2 SLP286 T01500083 =
2017-10-18 10:53 METAR KSEG 181453Z AUTO 10004KT 10SM CLR 12/08 A3037 RMK AO2 SLP287 T01220078
                 50003 =
2017-10-18 09:53 METAR KSEG 181353Z AUTO 00000KT 10SM CLR 09/07 A3038 RMK AO2 SLP290 T00940067 =
2017-10-18 08:53 METAR KSEG 181253Z AUTO 00000KT 8SM FEW003 06/06 A3039 RMK AO2 SLP292 T00610061
                 =
2017-10-18 08:44 METAR KSEG 181244Z AUTO 00000KT 6SM BR FEW003 06/06 A3038 RMK AO2 T00560056
2017-10-18 08:36 METAR KSEG 181236Z AUTO 00000KT 7SM BKN003 05/05 A3038 RMK AO2 T00500050 =
2017-10-18 08:28 METAR KSEG 181228Z AUTO 00000KT 8SM SCT003 04/04 A3038 RMK AO2 T00440039 =
2017-10-18 08:20 METAR KSEG 181220Z AUTO 00000KT 7SM BKN003 04/04 A3038 RMK AO2 T00390039 =
2017-10-18 07:53 METAR KSEG 181153Z AUTO 00000KT 5SM BR FEW002 03/03 A3037 RMK AO2 SLP285
                 T00330033 10044 20028 51018 =
2017-10-18 07:43 METAR KSEG 181143Z AUTO 00000KT 6SM BR SCT002 03/03 A3036 RMK AO2 T00330028 =
2017-10-18 07:35 METAR KSEG 181135Z AUTO 00000KT 6SM BR BKN003 03/03 A3036 RMK AO2 T00330028 =
2017-10-18 07:08 METAR KSEG 181108Z AUTO 00000KT 8SM SCT002 03/03 A3036 RMK AO2 T00280028 =
2017-10-18 06:53 METAR KSEG 181053Z AUTO 00000KT 9SM CLR 03/03 A3035 RMK AO2 SLP281 T00280028 =
2017-10-18 05:53 METAR KSEG 180953Z AUTO 00000KT 8SM CLR 03/03 A3033 RMK AO2 SLP274 T00330033 =
2017-10-18 04:53 METAR KSEG 180853Z AUTO 00000KT 8SM CLR 03/03 A3031 RMK AO2 SLP266 T00330033
                 55001 =
2017-10-18 03:53 METAR KSEG 180753Z AUTO 00000KT 10SM CLR 04/04 A3030 RMK AO2 SLP263 T00390039 =
2017-10-18 02:53 METAR KSEG 180653Z AUTO 00000KT 10SM CLR 04/04 A3031 RMK AO2 SLP265 T00440044 =
2017-10-18 01:53 METAR KSEG 180553Z AUTO 00000KT 10SM CLR 04/04 A3032 RMK AO2 SLP268 T00440039
                 10089 20044 53006 =
2017-10-18 00:53 METAR KSEG 180453Z AUTO 00000KT 10SM CLR 05/04 A3031 RMK AO2 SLP265 T00500044
                 401670006 =
2017-10-17 23:53 METAR KSEG 180353Z AUTO 00000KT 10SM CLR 06/05 A3030 RMK AO2 SLP263 T00610050 =
2017-10-17 22:53 METAR KSEG 180253Z AUTO 00000KT 10SM CLR 06/06 A3030 RMK AO2 SLP261 T00560056
                 53010 =
2017-10-17 21:53 METAR KSEG 180153Z AUTO 00000KT 10SM CLR 07/05 A3029 RMK AO2 SLP259 T00670050 =
2017-10-17 20:53 METAR KSEG 180053Z AUTO 00000KT 10SM CLR 07/06 A3027 RMK AO2 SLP253 T00720056 =
2017-10-17 19:53 METAR KSEG 172353Z AUTO 00000KT 10SM CLR 09/06 A3027 RMK AO2 SLP252 T00890056
                 10167 20083 53006 =
2017-10-17 18:53 METAR KSEG 172253Z AUTO 00000KT 10SM CLR 11/05 A3025 RMK AO2 SLP248 T01060050 =

Support USWX by starting your Amazon purchase here.